sensor_id;sensor_type;location;lat;lon;timestamp;P1;durP1;ratioP1;P2;durP2;ratioP2
38853;SDS011;24606;51.992;4.198;2024-02-23T00:03:18;21.90;;;2.90;;
38853;SDS011;24606;51.992;4.198;2024-02-23T00:08:20;15.30;;;2.42;;
38853;SDS011;24606;51.992;4.198;2024-02-23T00:13:24;8.07;;;1.60;;
38853;SDS011;24606;51.992;4.198;2024-02-23T00:18:26;16.95;;;2.42;;
38853;SDS011;24606;51.992;4.198;2024-02-23T00:23:28;10.15;;;2.42;;
38853;SDS011;24606;51.992;4.198;2024-02-23T00:28:32;13.65;;;3.30;;
38853;SDS011;24606;51.992;4.198;2024-02-23T00:33:34;16.33;;;3.00;;
38853;SDS011;24606;51.992;4.198;2024-02-23T00:38:37;19.83;;;2.92;;
38853;SDS011;24606;51.992;4.198;2024-02-23T00:43:41;11.17;;;2.00;;
38853;SDS011;24606;51.992;4.198;2024-02-23T00:48:43;12.05;;;2.20;;
38853;SDS011;24606;51.992;4.198;2024-02-23T00:53:46;8.73;;;2.30;;
38853;SDS011;24606;51.992;4.198;2024-02-23T00:58:51;10.27;;;1.88;;
38853;SDS011;24606;51.992;4.198;2024-02-23T01:03:58;19.05;;;2.95;;
38853;SDS011;24606;51.992;4.198;2024-02-23T01:09:00;17.73;;;2.67;;
38853;SDS011;24606;51.992;4.198;2024-02-23T01:14:05;12.80;;;2.45;;
38853;SDS011;24606;51.992;4.198;2024-02-23T01:19:08;14.55;;;2.38;;
38853;SDS011;24606;51.992;4.198;2024-02-23T01:24:09;10.43;;;1.65;;
38853;SDS011;24606;51.992;4.198;2024-02-23T01:29:13;10.27;;;2.17;;
38853;SDS011;24606;51.992;4.198;2024-02-23T01:34:16;16.27;;;2.63;;
38853;SDS011;24606;51.992;4.198;2024-02-23T01:39:19;12.73;;;1.85;;
38853;SDS011;24606;51.992;4.198;2024-02-23T01:44:22;11.27;;;2.85;;
38853;SDS011;24606;51.992;4.198;2024-02-23T01:54:29;14.80;;;2.40;;
38853;SDS011;24606;51.992;4.198;2024-02-23T01:59:34;10.48;;;2.17;;
38853;SDS011;24606;51.992;4.198;2024-02-23T02:04:38;12.27;;;1.20;;
38853;SDS011;24606;51.992;4.198;2024-02-23T02:09:40;6.00;;;1.48;;
38853;SDS011;24606;51.992;4.198;2024-02-23T02:14:43;15.60;;;2.70;;
38853;SDS011;24606;51.992;4.198;2024-02-23T02:19:45;13.35;;;1.85;;
38853;SDS011;24606;51.992;4.198;2024-02-23T02:24:49;17.30;;;2.47;;
38853;SDS011;24606;51.992;4.198;2024-02-23T02:29:52;17.25;;;2.35;;
38853;SDS011;24606;51.992;4.198;2024-02-23T02:34:54;7.63;;;1.58;;
38853;SDS011;24606;51.992;4.198;2024-02-23T02:39:56;13.60;;;2.03;;
38853;SDS011;24606;51.992;4.198;2024-02-23T02:45:00;11.33;;;2.10;;
38853;SDS011;24606;51.992;4.198;2024-02-23T02:50:03;22.88;;;2.60;;
38853;SDS011;24606;51.992;4.198;2024-02-23T02:55:07;13.07;;;1.65;;
38853;SDS011;24606;51.992;4.198;2024-02-23T03:00:11;4.53;;;1.13;;
38853;SDS011;24606;51.992;4.198;2024-02-23T03:05:14;8.57;;;1.52;;
38853;SDS011;24606;51.992;4.198;2024-02-23T03:10:16;18.65;;;2.65;;
38853;SDS011;24606;51.992;4.198;2024-02-23T03:15:19;14.75;;;1.30;;
38853;SDS011;24606;51.992;4.198;2024-02-23T03:25:23;15.10;;;2.35;;
38853;SDS011;24606;51.992;4.198;2024-02-23T03:30:26;15.57;;;2.10;;
38853;SDS011;24606;51.992;4.198;2024-02-23T03:40:30;13.77;;;1.88;;
38853;SDS011;24606;51.992;4.198;2024-02-23T03:45:33;12.93;;;1.83;;
38853;SDS011;24606;51.992;4.198;2024-02-23T03:50:36;14.27;;;2.25;;
38853;SDS011;24606;51.992;4.198;2024-02-23T03:55:38;17.25;;;1.90;;
38853;SDS011;24606;51.992;4.198;2024-02-23T04:15:30;13.32;;;1.80;;
38853;SDS011;24606;51.992;4.198;2024-02-23T04:20:32;12.43;;;2.00;;
38853;SDS011;24606;51.992;4.198;2024-02-23T04:25:34;24.07;;;2.23;;
38853;SDS011;24606;51.992;4.198;2024-02-23T04:30:38;15.30;;;3.83;;
38853;SDS011;24606;51.992;4.198;2024-02-23T04:40:42;0.40;;;0.40;;
38853;SDS011;24606;51.992;4.198;2024-02-23T04:45:45;0.30;;;0.30;;
38853;SDS011;24606;51.992;4.198;2024-02-23T04:50:47;0.30;;;0.30;;
38853;SDS011;24606;51.992;4.198;2024-02-23T04:55:49;0.10;;;0.10;;
38853;SDS011;24606;51.992;4.198;2024-02-23T05:00:53;0.10;;;0.10;;
38853;SDS011;24606;51.992;4.198;2024-02-23T05:05:56;0.20;;;0.20;;
38853;SDS011;24606;51.992;4.198;2024-02-23T05:10:58;0.10;;;0.10;;
38853;SDS011;24606;51.992;4.198;2024-02-23T05:16:01;0.20;;;0.20;;
38853;SDS011;24606;51.992;4.198;2024-02-23T05:21:04;0.10;;;0.10;;
38853;SDS011;24606;51.992;4.198;2024-02-23T05:26:06;0.10;;;0.10;;
38853;SDS011;24606;51.992;4.198;2024-02-23T05:31:10;0.10;;;0.10;;
38853;SDS011;24606;51.992;4.198;2024-02-23T05:41:16;0.40;;;0.40;;
38853;SDS011;24606;51.992;4.198;2024-02-23T05:46:19;0.30;;;0.30;;
38853;SDS011;24606;51.992;4.198;2024-02-23T05:51:22;0.13;;;0.13;;
38853;SDS011;24606;51.992;4.198;2024-02-23T05:56:27;0.10;;;0.10;;
38853;SDS011;24606;51.992;4.198;2024-02-23T06:01:30;0.10;;;0.10;;
38853;SDS011;24606;51.992;4.198;2024-02-23T06:06:32;0.20;;;0.20;;
38853;SDS011;24606;51.992;4.198;2024-02-23T06:11:34;0.30;;;0.30;;
38853;SDS011;24606;51.992;4.198;2024-02-23T06:16:38;0.10;;;0.10;;
38853;SDS011;24606;51.992;4.198;2024-02-23T06:21:40;0.20;;;0.20;;
38853;SDS011;24606;51.992;4.198;2024-02-23T06:26:42;0.10;;;0.10;;
38853;SDS011;24606;51.992;4.198;2024-02-23T06:31:47;0.10;;;0.10;;
38853;SDS011;24606;51.992;4.198;2024-02-23T06:36:49;0.10;;;0.10;;
38853;SDS011;24606;51.992;4.198;2024-02-23T06:41:51;0.20;;;0.20;;
38853;SDS011;24606;51.992;4.198;2024-02-23T06:46:55;0.20;;;0.20;;
38853;SDS011;24606;51.992;4.198;2024-02-23T06:51:57;0.10;;;0.10;;
38853;SDS011;24606;51.992;4.198;2024-02-23T06:56:59;0.10;;;0.10;;
38853;SDS011;24606;51.992;4.198;2024-02-23T07:02:02;0.10;;;0.10;;
38853;SDS011;24606;51.992;4.198;2024-02-23T07:07:05;0.73;;;0.73;;
38853;SDS011;24606;51.992;4.198;2024-02-23T07:12:08;0.10;;;0.10;;
38853;SDS011;24606;51.992;4.198;2024-02-23T07:17:17;0.13;;;0.13;;
38853;SDS011;24606;51.992;4.198;2024-02-23T07:22:19;0.20;;;0.20;;
38853;SDS011;24606;51.992;4.198;2024-02-23T07:27:21;0.20;;;0.20;;
38853;SDS011;24606;51.992;4.198;2024-02-23T07:32:25;0.17;;;0.17;;
38853;SDS011;24606;51.992;4.198;2024-02-23T07:37:27;0.10;;;0.10;;
38853;SDS011;24606;51.992;4.198;2024-02-23T07:42:29;0.20;;;0.20;;
38853;SDS011;24606;51.992;4.198;2024-02-23T07:47:32;9.45;;;1.17;;
38853;SDS011;24606;51.992;4.198;2024-02-23T07:52:35;1.00;;;0.82;;
38853;SDS011;24606;51.992;4.198;2024-02-23T07:57:37;0.10;;;0.10;;
38853;SDS011;24606;51.992;4.198;2024-02-23T08:02:41;0.25;;;0.25;;
38853;SDS011;24606;51.992;4.198;2024-02-23T08:07:43;0.10;;;0.10;;
38853;SDS011;24606;51.992;4.198;2024-02-23T08:12:45;0.10;;;0.10;;
38853;SDS011;24606;51.992;4.198;2024-02-23T08:17:48;0.10;;;0.10;;
38853;SDS011;24606;51.992;4.198;2024-02-23T08:22:50;0.20;;;0.20;;
38853;SDS011;24606;51.992;4.198;2024-02-23T08:27:52;0.10;;;0.10;;
38853;SDS011;24606;51.992;4.198;2024-02-23T08:32:56;0.10;;;0.10;;
38853;SDS011;24606;51.992;4.198;2024-02-23T08:37:57;0.35;;;0.35;;
38853;SDS011;24606;51.992;4.198;2024-02-23T08:42:59;0.20;;;0.20;;
38853;SDS011;24606;51.992;4.198;2024-02-23T08:48:03;0.10;;;0.10;;
38853;SDS011;24606;51.992;4.198;2024-02-23T08:53:05;0.10;;;0.10;;
38853;SDS011;24606;51.992;4.198;2024-02-23T08:58:07;10.05;;;2.83;;
38853;SDS011;24606;51.992;4.198;2024-02-23T09:03:11;0.10;;;0.10;;
38853;SDS011;24606;51.992;4.198;2024-02-23T09:08:13;0.10;;;0.10;;
38853;SDS011;24606;51.992;4.198;2024-02-23T09:13:15;0.63;;;0.63;;
38853;SDS011;24606;51.992;4.198;2024-02-23T09:18:18;0.10;;;0.10;;
38853;SDS011;24606;51.992;4.198;2024-02-23T09:23:20;0.10;;;0.10;;
38853;SDS011;24606;51.992;4.198;2024-02-23T09:28:22;0.10;;;0.10;;
38853;SDS011;24606;51.992;4.198;2024-02-23T09:33:26;0.13;;;0.13;;
38853;SDS011;24606;51.992;4.198;2024-02-23T09:38:28;0.10;;;0.10;;
38853;SDS011;24606;51.992;4.198;2024-02-23T09:43:32;0.10;;;0.10;;
38853;SDS011;24606;51.992;4.198;2024-02-23T09:48:36;0.10;;;0.10;;
38853;SDS011;24606;51.992;4.198;2024-02-23T09:53:39;7.47;;;1.75;;
38853;SDS011;24606;51.992;4.198;2024-02-23T09:58:42;7.38;;;1.48;;
38853;SDS011;24606;51.992;4.198;2024-02-23T10:03:47;9.35;;;2.13;;
38853;SDS011;24606;51.992;4.198;2024-02-23T10:08:49;3.75;;;2.22;;
38853;SDS011;24606;51.992;4.198;2024-02-23T10:13:51;4.07;;;0.95;;
38853;SDS011;24606;51.992;4.198;2024-02-23T10:18:55;8.15;;;1.90;;
38853;SDS011;24606;51.992;4.198;2024-02-23T10:23:59;8.90;;;1.85;;
38853;SDS011;24606;51.992;4.198;2024-02-23T10:29:01;7.30;;;1.77;;
38853;SDS011;24606;51.992;4.198;2024-02-23T10:34:06;6.47;;;1.60;;
38853;SDS011;24606;51.992;4.198;2024-02-23T10:39:12;2.53;;;1.23;;
38853;SDS011;24606;51.992;4.198;2024-02-23T10:44:19;4.60;;;1.38;;
38853;SDS011;24606;51.992;4.198;2024-02-23T10:49:24;13.80;;;2.00;;
38853;SDS011;24606;51.992;4.198;2024-02-23T10:54:27;4.70;;;1.65;;
38853;SDS011;24606;51.992;4.198;2024-02-23T10:59:31;7.68;;;2.00;;
38853;SDS011;24606;51.992;4.198;2024-02-23T11:04:35;4.17;;;1.70;;
38853;SDS011;24606;51.992;4.198;2024-02-23T11:09:37;6.40;;;1.45;;
38853;SDS011;24606;51.992;4.198;2024-02-23T11:14:40;6.05;;;1.48;;
38853;SDS011;24606;51.992;4.198;2024-02-23T11:19:48;8.13;;;1.83;;
38853;SDS011;24606;51.992;4.198;2024-02-23T11:24:51;6.68;;;1.80;;
38853;SDS011;24606;51.992;4.198;2024-02-23T11:29:59;9.93;;;2.05;;
38853;SDS011;24606;51.992;4.198;2024-02-23T11:35:05;6.50;;;1.10;;
38853;SDS011;24606;51.992;4.198;2024-02-23T11:40:09;6.85;;;1.67;;
38853;SDS011;24606;51.992;4.198;2024-02-23T11:45:13;7.10;;;1.70;;
38853;SDS011;24606;51.992;4.198;2024-02-23T11:50:17;8.73;;;1.95;;
38853;SDS011;24606;51.992;4.198;2024-02-23T11:55:21;10.27;;;2.13;;
38853;SDS011;24606;51.992;4.198;2024-02-23T12:00:23;8.52;;;1.88;;
38853;SDS011;24606;51.992;4.198;2024-02-23T12:05:27;6.53;;;1.50;;
38853;SDS011;24606;51.992;4.198;2024-02-23T12:10:29;7.72;;;1.75;;
38853;SDS011;24606;51.992;4.198;2024-02-23T12:15:32;5.60;;;1.33;;
38853;SDS011;24606;51.992;4.198;2024-02-23T12:20:35;8.87;;;1.77;;
38853;SDS011;24606;51.992;4.198;2024-02-23T12:25:37;8.45;;;1.75;;
38853;SDS011;24606;51.992;4.198;2024-02-23T12:30:39;6.93;;;1.50;;
38853;SDS011;24606;51.992;4.198;2024-02-23T12:35:43;7.60;;;1.45;;
38853;SDS011;24606;51.992;4.198;2024-02-23T12:40:46;10.82;;;0.90;;
38853;SDS011;24606;51.992;4.198;2024-02-23T12:45:48;6.35;;;1.23;;
38853;SDS011;24606;51.992;4.198;2024-02-23T12:50:52;10.97;;;1.97;;
38853;SDS011;24606;51.992;4.198;2024-02-23T12:55:54;5.55;;;1.08;;
38853;SDS011;24606;51.992;4.198;2024-02-23T13:00:56;11.63;;;0.98;;
38853;SDS011;24606;51.992;4.198;2024-02-23T13:06:00;4.50;;;0.70;;
38853;SDS011;24606;51.992;4.198;2024-02-23T13:11:02;4.95;;;0.77;;
38853;SDS011;24606;51.992;4.198;2024-02-23T13:16:05;4.70;;;0.67;;
38853;SDS011;24606;51.992;4.198;2024-02-23T13:21:10;2.05;;;0.77;;
38853;SDS011;24606;51.992;4.198;2024-02-23T13:26:12;2.20;;;0.85;;
38853;SDS011;24606;51.992;4.198;2024-02-23T13:31:15;5.03;;;0.82;;
38853;SDS011;24606;51.992;4.198;2024-02-23T13:36:18;3.33;;;0.63;;
38853;SDS011;24606;51.992;4.198;2024-02-23T13:46:22;5.90;;;1.27;;
38853;SDS011;24606;51.992;4.198;2024-02-23T13:51:26;5.50;;;0.90;;
38853;SDS011;24606;51.992;4.198;2024-02-23T13:56:28;5.43;;;1.20;;
38853;SDS011;24606;51.992;4.198;2024-02-23T14:01:30;9.55;;;0.80;;
38853;SDS011;24606;51.992;4.198;2024-02-23T14:06:34;3.23;;;0.97;;
38853;SDS011;24606;51.992;4.198;2024-02-23T14:11:36;2.72;;;0.55;;
38853;SDS011;24606;51.992;4.198;2024-02-23T14:16:40;1.73;;;0.77;;
38853;SDS011;24606;51.992;4.198;2024-02-23T14:21:43;3.90;;;0.85;;
38853;SDS011;24606;51.992;4.198;2024-02-23T14:26:45;2.40;;;0.63;;
38853;SDS011;24606;51.992;4.198;2024-02-23T14:31:48;4.32;;;1.10;;
38853;SDS011;24606;51.992;4.198;2024-02-23T14:36:51;4.28;;;1.48;;
38853;SDS011;24606;51.992;4.198;2024-02-23T14:41:53;2.75;;;0.98;;
38853;SDS011;24606;51.992;4.198;2024-02-23T14:46:56;4.97;;;0.60;;
38853;SDS011;24606;51.992;4.198;2024-02-23T14:52:00;2.92;;;0.70;;
38853;SDS011;24606;51.992;4.198;2024-02-23T14:57:02;9.40;;;1.02;;
38853;SDS011;24606;51.992;4.198;2024-02-23T15:02:05;2.67;;;0.70;;
38853;SDS011;24606;51.992;4.198;2024-02-23T15:12:11;4.50;;;1.33;;
38853;SDS011;24606;51.992;4.198;2024-02-23T15:17:14;6.60;;;1.20;;
38853;SDS011;24606;51.992;4.198;2024-02-23T15:22:17;5.00;;;2.03;;
38853;SDS011;24606;51.992;4.198;2024-02-23T15:27:20;3.25;;;1.00;;
38853;SDS011;24606;51.992;4.198;2024-02-23T15:32:22;4.72;;;1.05;;
38853;SDS011;24606;51.992;4.198;2024-02-23T15:37:25;2.60;;;1.10;;
38853;SDS011;24606;51.992;4.198;2024-02-23T15:42:27;5.93;;;1.20;;
38853;SDS011;24606;51.992;4.198;2024-02-23T15:47:29;5.78;;;1.20;;
38853;SDS011;24606;51.992;4.198;2024-02-23T15:52:33;4.07;;;1.23;;
38853;SDS011;24606;51.992;4.198;2024-02-23T15:57:35;4.13;;;1.92;;
38853;SDS011;24606;51.992;4.198;2024-02-23T16:02:37;7.25;;;0.88;;
38853;SDS011;24606;51.992;4.198;2024-02-23T16:07:40;2.90;;;0.90;;
38853;SDS011;24606;51.992;4.198;2024-02-23T16:12:43;3.60;;;0.73;;
38853;SDS011;24606;51.992;4.198;2024-02-23T16:17:51;4.68;;;0.80;;
38853;SDS011;24606;51.992;4.198;2024-02-23T16:22:54;2.45;;;0.85;;
38853;SDS011;24606;51.992;4.198;2024-02-23T16:27:56;1.90;;;0.75;;
38853;SDS011;24606;51.992;4.198;2024-02-23T16:32:58;1.25;;;0.88;;
38853;SDS011;24606;51.992;4.198;2024-02-23T16:38:02;3.13;;;0.60;;
38853;SDS011;24606;51.992;4.198;2024-02-23T16:43:04;5.85;;;1.27;;
38853;SDS011;24606;51.992;4.198;2024-02-23T16:48:06;1.88;;;0.80;;
38853;SDS011;24606;51.992;4.198;2024-02-23T16:53:11;1.85;;;0.73;;
38853;SDS011;24606;51.992;4.198;2024-02-23T16:58:13;5.88;;;0.90;;
38853;SDS011;24606;51.992;4.198;2024-02-23T17:03:15;2.70;;;0.95;;
38853;SDS011;24606;51.992;4.198;2024-02-23T17:08:32;2.38;;;0.70;;
38853;SDS011;24606;51.992;4.198;2024-02-23T17:13:35;7.30;;;0.90;;
38853;SDS011;24606;51.992;4.198;2024-02-23T17:18:37;2.83;;;0.80;;
38853;SDS011;24606;51.992;4.198;2024-02-23T17:23:41;1.73;;;1.17;;
38853;SDS011;24606;51.992;4.198;2024-02-23T17:28:43;2.35;;;1.13;;
38853;SDS011;24606;51.992;4.198;2024-02-23T17:33:46;1.73;;;1.17;;
38853;SDS011;24606;51.992;4.198;2024-02-23T17:38:49;5.03;;;1.00;;
38853;SDS011;24606;51.992;4.198;2024-02-23T17:43:51;6.05;;;1.23;;
38853;SDS011;24606;51.992;4.198;2024-02-23T17:48:54;3.78;;;0.85;;
38853;SDS011;24606;51.992;4.198;2024-02-23T17:53:57;3.70;;;1.20;;
38853;SDS011;24606;51.992;4.198;2024-02-23T17:58:59;2.95;;;1.15;;
38853;SDS011;24606;51.992;4.198;2024-02-23T18:04:01;2.17;;;0.93;;
38853;SDS011;24606;51.992;4.198;2024-02-23T18:09:05;2.17;;;1.02;;
38853;SDS011;24606;51.992;4.198;2024-02-23T18:14:07;2.03;;;0.93;;
38853;SDS011;24606;51.992;4.198;2024-02-23T18:19:09;4.35;;;1.35;;
38853;SDS011;24606;51.992;4.198;2024-02-23T18:24:13;2.30;;;1.00;;
38853;SDS011;24606;51.992;4.198;2024-02-23T18:29:15;7.25;;;1.80;;
38853;SDS011;24606;51.992;4.198;2024-02-23T18:34:18;3.28;;;1.13;;
38853;SDS011;24606;51.992;4.198;2024-02-23T18:39:21;2.60;;;1.05;;
38853;SDS011;24606;51.992;4.198;2024-02-23T18:44:24;2.55;;;1.27;;
38853;SDS011;24606;51.992;4.198;2024-02-23T18:49:27;2.03;;;1.30;;
38853;SDS011;24606;51.992;4.198;2024-02-23T18:54:33;3.05;;;1.92;;
38853;SDS011;24606;51.992;4.198;2024-02-23T18:59:35;1.58;;;1.08;;
38853;SDS011;24606;51.992;4.198;2024-02-23T19:04:37;2.67;;;1.10;;
38853;SDS011;24606;51.992;4.198;2024-02-23T19:09:40;2.40;;;0.70;;
38853;SDS011;24606;51.992;4.198;2024-02-23T19:14:43;1.45;;;0.80;;
38853;SDS011;24606;51.992;4.198;2024-02-23T19:19:45;4.57;;;0.90;;
38853;SDS011;24606;51.992;4.198;2024-02-23T19:24:49;2.40;;;0.93;;
38853;SDS011;24606;51.992;4.198;2024-02-23T19:29:51;2.55;;;0.60;;
38853;SDS011;24606;51.992;4.198;2024-02-23T19:34:54;5.13;;;0.95;;
38853;SDS011;24606;51.992;4.198;2024-02-23T19:39:57;3.03;;;0.85;;
38853;SDS011;24606;51.992;4.198;2024-02-23T19:44:59;2.28;;;0.75;;
38853;SDS011;24606;51.992;4.198;2024-02-23T19:50:02;1.85;;;0.70;;
38853;SDS011;24606;51.992;4.198;2024-02-23T19:55:06;0.70;;;0.60;;
38853;SDS011;24606;51.992;4.198;2024-02-23T20:00:08;6.35;;;1.55;;
38853;SDS011;24606;51.992;4.198;2024-02-23T20:05:15;3.03;;;1.52;;
38853;SDS011;24606;51.992;4.198;2024-02-23T20:10:21;2.33;;;1.00;;
38853;SDS011;24606;51.992;4.198;2024-02-23T20:15:27;2.45;;;1.17;;
38853;SDS011;24606;51.992;4.198;2024-02-23T20:20:29;3.70;;;1.57;;
38853;SDS011;24606;51.992;4.198;2024-02-23T20:25:38;5.13;;;2.35;;
38853;SDS011;24606;51.992;4.198;2024-02-23T20:30:44;7.03;;;3.50;;
38853;SDS011;24606;51.992;4.198;2024-02-23T20:35:55;3.13;;;1.90;;
38853;SDS011;24606;51.992;4.198;2024-02-23T20:41:10;11.05;;;4.45;;
38853;SDS011;24606;51.992;4.198;2024-02-23T20:46:16;5.80;;;2.95;;
38853;SDS011;24606;51.992;4.198;2024-02-23T20:51:18;11.20;;;4.05;;
38853;SDS011;24606;51.992;4.198;2024-02-23T20:56:22;8.80;;;3.23;;
38853;SDS011;24606;51.992;4.198;2024-02-23T21:01:24;7.90;;;3.13;;
38853;SDS011;24606;51.992;4.198;2024-02-23T21:06:26;6.50;;;2.90;;
38853;SDS011;24606;51.992;4.198;2024-02-23T21:11:29;5.72;;;2.45;;
38853;SDS011;24606;51.992;4.198;2024-02-23T21:16:31;3.10;;;2.00;;
38853;SDS011;24606;51.992;4.198;2024-02-23T21:21:33;3.97;;;2.22;;
38853;SDS011;24606;51.992;4.198;2024-02-23T21:26:37;4.23;;;1.47;;
38853;SDS011;24606;51.992;4.198;2024-02-23T21:31:39;4.68;;;2.38;;
38853;SDS011;24606;51.992;4.198;2024-02-23T21:36:41;7.57;;;2.30;;
38853;SDS011;24606;51.992;4.198;2024-02-23T21:41:45;2.83;;;2.20;;
38853;SDS011;24606;51.992;4.198;2024-02-23T21:46:47;6.70;;;2.60;;
38853;SDS011;24606;51.992;4.198;2024-02-23T21:51:49;4.23;;;1.67;;
38853;SDS011;24606;51.992;4.198;2024-02-23T21:56:53;9.20;;;1.50;;
38853;SDS011;24606;51.992;4.198;2024-02-23T22:01:57;8.45;;;1.73;;
38853;SDS011;24606;51.992;4.198;2024-02-23T22:07:04;2.30;;;1.60;;
38853;SDS011;24606;51.992;4.198;2024-02-23T22:12:09;3.00;;;1.73;;
38853;SDS011;24606;51.992;4.198;2024-02-23T22:17:11;3.10;;;2.20;;
38853;SDS011;24606;51.992;4.198;2024-02-23T22:22:13;4.70;;;2.00;;
38853;SDS011;24606;51.992;4.198;2024-02-23T22:27:16;4.50;;;1.83;;
38853;SDS011;24606;51.992;4.198;2024-02-23T22:32:18;8.57;;;3.92;;
38853;SDS011;24606;51.992;4.198;2024-02-23T22:37:21;3.83;;;2.30;;
38853;SDS011;24606;51.992;4.198;2024-02-23T22:42:24;5.17;;;2.87;;
38853;SDS011;24606;51.992;4.198;2024-02-23T22:47:26;8.07;;;3.60;;
38853;SDS011;24606;51.992;4.198;2024-02-23T22:52:28;6.05;;;2.50;;
38853;SDS011;24606;51.992;4.198;2024-02-23T22:57:34;6.38;;;2.63;;
38853;SDS011;24606;51.992;4.198;2024-02-23T23:02:36;5.75;;;3.20;;
38853;SDS011;24606;51.992;4.198;2024-02-23T23:07:40;8.13;;;3.83;;
38853;SDS011;24606;51.992;4.198;2024-02-23T23:12:46;7.55;;;3.42;;
38853;SDS011;24606;51.992;4.198;2024-02-23T23:17:48;5.35;;;2.70;;
38853;SDS011;24606;51.992;4.198;2024-02-23T23:22:51;5.85;;;3.42;;
38853;SDS011;24606;51.992;4.198;2024-02-23T23:27:55;7.28;;;4.25;;
38853;SDS011;24606;51.992;4.198;2024-02-23T23:32:57;5.18;;;2.65;;
38853;SDS011;24606;51.992;4.198;2024-02-23T23:37:59;4.93;;;2.43;;
38853;SDS011;24606;51.992;4.198;2024-02-23T23:43:03;7.53;;;3.30;;
38853;SDS011;24606;51.992;4.198;2024-02-23T23:48:05;7.80;;;2.78;;
38853;SDS011;24606;51.992;4.198;2024-02-23T23:53:08;9.48;;;4.32;;
38853;SDS011;24606;51.992;4.198;2024-02-23T23:58:13;7.70;;;3.80;;
